Connecticut Logo

Bristol, CT Single Family Real Estate Listings

188 Total Real Estate Listings * Click on table heading to sort
Date Posted Property Type Style Address Price Living Area Lot Size Price/Sq Ft.
2019-02-19 Single Family Mobile Home 482 Broad Street Bristol, CT 06010 $39,000 832 sq. ft. $47
2019-02-19 Single Family Cape Cod; Colonial 91 Maxine Road Bristol, CT 06010 $449,900 3,466 sq. ft. 30,056 sq. ft. $130
2019-02-19 Single Family Cape Cod 115 Moody Street Bristol, CT 06010 $174,900 2,066 sq. ft. 10,890 sq. ft. $85
2019-02-18 Single Family Farm House 49 Lyons Road Bristol, CT 06010 $189,000 1,384 sq. ft. 15,246 sq. ft. $137
2019-02-18 Single Family Raised Ranch 258 Candlewood Drive Bristol, CT 06010 $240,000 1,196 sq. ft. 14,810 sq. ft. $201
2019-02-16 Single Family Cape Cod 118 Ben Street Bristol, CT 06010 $139,900 1,198 sq. ft. 10,890 sq. ft. $117
2019-02-15 Single Family Ranch 132 Putnam Street Bristol, CT 06010 $85,000 684 sq. ft. 6,970 sq. ft. $124
2019-02-15 Single Family Mobile Home 40 Matthews Street Bristol, CT 06010 $47,500 960 sq. ft. $49
2019-02-14 Single Family Ranch 96 Oak Hill Drive Bristol, CT 06010 $300,000 2,034 sq. ft. 19,428 sq. ft. $147
2019-02-14 Single Family Colonial 85 Wildewood Run Bristol, CT 06010 $315,000 3,168 sq. ft. 26,136 sq. ft. $99
2019-02-14 Single Family Colonial 140 El Toro Drive Bristol, CT 06010 $274,900 2,167 sq. ft. 23,958 sq. ft. $127
2019-02-14 Single Family Colonial 28 Lawrence Lane Bristol, CT 06010 $220,000 2,422 sq. ft. 21,344 sq. ft. $91
2019-02-14 Single Family Raised Ranch 571 Stafford Avenue Bristol, CT 06010 $239,900 1,614 sq. ft. 15,246 sq. ft. $149
2019-02-14 Single Family Cape Cod 5 Knibbs Circle Bristol, CT 06010 $335,600 2,152 sq. ft. $156
2019-02-14 Single Family Ranch 65 Warner Street Bristol, CT 06010 $229,900 1,232 sq. ft. 37,026 sq. ft. $187
2019-02-14 Single Family Cape Cod 68 Woodmere Road Bristol, CT 06010 $175,000 1,294 sq. ft. 6,534 sq. ft. $135
2019-02-14 Single Family Cape Cod 33 Missal Avenue Bristol, CT 06010 $185,000 1,745 sq. ft. 7,405 sq. ft. $106
2019-02-13 Single Family Raised Ranch 102 Indiana Street Bristol, CT 06010 $249,900 1,492 sq. ft. 16,117 sq. ft. $167
2019-02-13 Single Family Cape Cod 58 Old Turnpike Road Bristol, CT 06010 $195,000 1,570 sq. ft. 15,246 sq. ft. $124
2019-02-13 Single Family Ranch 3 Dover Street Bristol, CT 06010 $159,999 936 sq. ft. 12,632 sq. ft. $171
2019-02-13 Single Family Cape Cod 267 Fern Hill Road Bristol, CT 06010 $179,900 1,568 sq. ft. 18,295 sq. ft. $115
2019-02-12 Single Family Cape Cod 610 Wolcott Street Bristol, CT 06010 $154,900 1,267 sq. ft. 10,019 sq. ft. $122
2019-02-11 Single Family Colonial 81 Andrews Street Bristol, CT 06010 $74,900 1,488 sq. ft. 15,246 sq. ft. $50
2019-02-11 Single Family Colonial 104 Stearns Street Bristol, CT 06010 $199,900 2,323 sq. ft. 6,970 sq. ft. $86
2019-02-08 Single Family Cape Cod 6 Roberge Road Bristol, CT 06010 $142,900 1,279 sq. ft. 12,197 sq. ft. $112
2019-02-08 Single Family Cape Cod 30 Candy Lane Bristol, CT 06010 $215,000 1,426 sq. ft. 11,326 sq. ft. $151
2019-02-07 Single Family Ranch 5 French Street Bristol, CT 06010 $184,900 1,076 sq. ft. 9,583 sq. ft. $172
2019-02-06 Single Family Raised Ranch 144 Ambler Road Bristol, CT 06010 $229,900 1,236 sq. ft. 38,333 sq. ft. $186
2019-02-05 Single Family Raised Ranch 55 Woodybrook Road Bristol, CT 06010 $189,000 1,682 sq. ft. 20,038 sq. ft. $112
2019-02-05 Single Family Ranch 20 Joseph Street Bristol, CT 06010 $244,900 1,608 sq. ft. 7,841 sq. ft. $152
2019-02-04 Single Family Colonial 199 Pinnacle Road Bristol, CT 06010 $229,900 1,872 sq. ft. 27,007 sq. ft. $123
2019-02-04 Single Family Colonial 38 Geary Avenue Bristol, CT 06010 $150,000 1,364 sq. ft. 5,227 sq. ft. $110
2019-02-04 Single Family Colonial 375 Perkins Street Bristol, CT 06010 $317,788 2,066 sq. ft. 27,878 sq. ft. $154
2019-02-04 Single Family Ranch 761 Wolcott Street Bristol, CT 06010 $299,000 2,038 sq. ft. 291,852 sq. ft. $147
2019-02-03 Single Family Colonial 100 Sunnydale Avenue Bristol, CT 06010 $284,900 1,563 sq. ft. 15,682 sq. ft. $182
2019-02-03 Single Family Ranch 510 Wolcott Street Bristol, CT 06010 $114,900 1,008 sq. ft. 15,246 sq. ft. $114
2019-02-03 Single Family Ranch 77 Mitchell Street Bristol, CT 06010 $249,900 1,896 sq. ft. 22,216 sq. ft. $132
2019-02-02 Single Family Colonial 98 Mcintosh Drive Bristol, CT 06010 $279,900 2,442 sq. ft. 26,572 sq. ft. $115
2019-01-31 Single Family Raised Ranch; Ranch 179 Maxine Road Bristol, CT 06010 $284,900 2,016 sq. ft. 46,174 sq. ft. $141
2019-01-31 Single Family Colonial; Contemporary 118 El Toro Drive Bristol, CT 06010 $348,000 3,663 sq. ft. 23,958 sq. ft. $95
2019-01-31 Single Family Split Level 66 Clover Road Bristol, CT 06010 $194,900 1,352 sq. ft. 15,682 sq. ft. $144
2019-01-30 Single Family Contemporary 41 Chatham Lane Bristol, CT 06010 $135,000 1,329 sq. ft. 12,197 sq. ft. $102
2019-01-30 Single Family Ranch 63 Vine Road Bristol, CT 06010 $169,900 960 sq. ft. 13,939 sq. ft. $177
2019-01-29 Single Family Colonial; Mobile Home 184 Medford Street Bristol, CT 06010 $329,900 2,237 sq. ft. 118,919 sq. ft. $147
2019-01-28 Single Family Cape Cod 62 Hardwick Road Bristol, CT 06010 $239,900 1,827 sq. ft. 9,148 sq. ft. $131
2019-01-28 Single Family Ranch 87 Wyndwood Drive Bristol, CT 06010 $234,900 1,586 sq. ft. 16,553 sq. ft. $148
2019-01-28 Single Family Cape Cod 188 Brook Street Bristol, CT 06010 $129,900 1,253 sq. ft. 7,841 sq. ft. $104
2019-01-28 Single Family Colonial 305 Tyler Way Bristol, CT 06010 $214,900 1,744 sq. ft. 26,136 sq. ft. $123
2019-01-27 Single Family Colonial 3 Marion Street Bristol, CT 06010 $195,000 2,848 sq. ft. 7,841 sq. ft. $68
2019-01-27 Single Family Colonial 190 Pondview Lane Bristol, CT 06010 $309,000 2,128 sq. ft. 20,038 sq. ft. $145
2019-01-26 Single Family Raised Ranch 116 Maheu Street Bristol, CT 06010 $124,800 1,444 sq. ft. 10,019 sq. ft. $86
2019-01-25 Single Family Colonial 335 Pennwood Place Bristol, CT 06010 $464,900 3,609 sq. ft. 51,401 sq. ft. $129
2019-01-25 Single Family Colonial 389 Village Street Bristol, CT 06010 $399,900 3,276 sq. ft. 16,553 sq. ft. $122
2019-01-25 Single Family Colonial 365 Allentown Road Bristol, CT 06010 $272,000 1,854 sq. ft. $147
2019-01-25 Single Family Colonial 365 Allentown Road Bristol, CT 06010 $269,000 1,854 sq. ft. $145
2019-01-25 Single Family Split Level 83 Rogers Road Bristol, CT 06010 $279,500 1,924 sq. ft. 13,504 sq. ft. $145
2019-01-25 Single Family Colonial 53 Woodbridge Road Bristol, CT 06010 $269,900 2,134 sq. ft. 21,344 sq. ft. $126
2019-01-25 Single Family Colonial 229 Brewster Road Bristol, CT 06010 $259,900 2,042 sq. ft. 34,848 sq. ft. $127
2019-01-25 Single Family Colonial 440 Hill Street Bristol, CT 06010 $299,000 2,240 sq. ft. 15,246 sq. ft. $133
2019-01-25 Single Family Cape Cod 235 Beths Avenue Bristol, CT 06010 $219,900 1,533 sq. ft. 11,761 sq. ft. $143
2019-01-25 Single Family Ranch 118 Candlewood Drive Bristol, CT 06010 $249,900 2,119 sq. ft. 20,473 sq. ft. $118
2019-01-25 Single Family Cape Cod 4 Cortelyou Road Bristol, CT 06010 $205,000 1,337 sq. ft. 5,663 sq. ft. $153
2019-01-25 Single Family Colonial 17 Walnut Street Bristol, CT 06010 $214,900 1,675 sq. ft. 6,098 sq. ft. $128
2019-01-25 Single Family Colonial 31 Plank Hill Road Bristol, CT 06010 $229,900 1,694 sq. ft. 20,038 sq. ft. $136
2019-01-25 Single Family Cape Cod 28 Michael Street Bristol, CT 06010 $214,900 1,859 sq. ft. 11,326 sq. ft. $116
2019-01-25 Single Family Ranch 193 Tunxis Road Bristol, CT 06010 $210,000 1,748 sq. ft. 39,204 sq. ft. $120
2019-01-25 Single Family Raised Ranch 16 Susan Lane Bristol, CT 06010 $234,900 1,673 sq. ft. 16,117 sq. ft. $140
2019-01-25 Single Family Cape Cod 55 Saw Mill Road Bristol, CT 06010 $225,000 1,426 sq. ft. 15,682 sq. ft. $158
2019-01-25 Single Family Ranch 31 Fox Den Road Bristol, CT 06010 $229,900 1,489 sq. ft. 18,731 sq. ft. $154
2019-01-25 Single Family Ranch 135 George Street Bristol, CT 06010 $199,900 2,010 sq. ft. 11,761 sq. ft. $99
2019-01-25 Single Family Cape Cod 45 Royal Drive Bristol, CT 06010 $174,900 2,009 sq. ft. 27,007 sq. ft. $87
2019-01-25 Single Family Raised Ranch 35 Yale Street Bristol, CT 06010 $189,900 2,158 sq. ft. 32,234 sq. ft. $88
2019-01-25 Single Family Cape Cod 157 Rockwell Avenue Bristol, CT 06010 $189,900 1,478 sq. ft. 8,712 sq. ft. $128
2019-01-25 Single Family Contemporary 121 Curtiss Street Bristol, CT 06010 $168,900 1,244 sq. ft. 4,792 sq. ft. $136
2019-01-25 Single Family Ranch 201 Newell Avenue Bristol, CT 06010 $184,900 1,438 sq. ft. 22,651 sq. ft. $129
2019-01-25 Single Family Colonial 70 Buckley Avenue Bristol, CT 06010 $199,900 2,064 sq. ft. 7,405 sq. ft. $97
2019-01-25 Single Family Cape Cod 131 Collins Road Bristol, CT 06010 $159,900 1,114 sq. ft. 8,712 sq. ft. $144
2019-01-25 Single Family Cape Cod 102 Henderson Street Bristol, CT 06010 $184,900 1,297 sq. ft. 7,405 sq. ft. $143
2019-01-25 Single Family Ranch 139 Alexander Street Bristol, CT 06010 $159,900 1,206 sq. ft. 13,068 sq. ft. $133
2019-01-25 Single Family Raised Ranch 25 Hidden Brook Drive Bristol, CT 06010 $174,900 1,520 sq. ft. 22,216 sq. ft. $115
2019-01-25 Single Family Ranch 53 Longview Avenue Bristol, CT 06010 $164,900 1,462 sq. ft. 10,890 sq. ft. $113
2019-01-25 Single Family Colonial 205 Perkins Street Bristol, CT 06010 $179,900 2,148 sq. ft. 30,492 sq. ft. $84
2019-01-25 Single Family Cape Cod 43 Colony Street Bristol, CT 06010 $179,900 1,498 sq. ft. 4,356 sq. ft. $120
2019-01-25 Single Family Colonial 57 Overlook Avenue Bristol, CT 06010 $189,000 1,390 sq. ft. 5,663 sq. ft. $136
2019-01-25 Single Family Cape Cod 301 Fall Mountain Road Bristol, CT 06010 $174,900 1,201 sq. ft. 80,150 sq. ft. $146
2019-01-25 Single Family Cape Cod 62 Sigourney Street Bristol, CT 06010 $149,900 1,309 sq. ft. 6,970 sq. ft. $115
2019-01-25 Single Family Raised Ranch 415 East Road Bristol, CT 06010 $179,900 994 sq. ft. 8,712 sq. ft. $181
2019-01-25 Single Family Cape Cod 193 Bradley Street Bristol, CT 06010 $185,900 2,210 sq. ft. 34,412 sq. ft. $84
2019-01-25 Single Family Cape Cod 1046 Farmington Avenue Bristol, CT 06010 $139,900 1,154 sq. ft. 8,712 sq. ft. $121
2019-01-25 Single Family Ranch 12 Greystone Avenue Bristol, CT 06010 $149,900 1,360 sq. ft. 8,712 sq. ft. $110
2019-01-25 Single Family Ranch 53 Lawndale Avenue Bristol, CT 06010 $147,500 1,022 sq. ft. 5,227 sq. ft. $144
2019-01-25 Single Family Cape Cod 160 Madison Drive Bristol, CT 06010 $159,900 1,148 sq. ft. 8,712 sq. ft. $139
2019-01-25 Single Family Ranch 444 Jerome Avenue Bristol, CT 06010 $139,900 960 sq. ft. 9,583 sq. ft. $146
2019-01-25 Single Family Raised Ranch 38 Algonquin Way Bristol, CT 06010 $159,900 1,954 sq. ft. 9,148 sq. ft. $82
2019-01-25 Single Family Mobile Home 40 Matthews Street Bristol, CT 06010 $53,000 1,152 sq. ft. $46
2019-01-25 Single Family Cape Cod 159 Mountain View Avenue Bristol, CT 06010 $82,800 890 sq. ft. 20,909 sq. ft. $93
2019-01-25 Single Family Ranch 64 Rosemont Avenue Bristol, CT 06010 $93,000 768 sq. ft. 7,405 sq. ft. $121
2019-01-25 Single Family Mobile Home 482 Broad Street Bristol, CT 06010 $19,900 624 sq. ft. $32
2019-01-25 Single Family Ranch 146 Perkins Street Bristol, CT 06010 $119,900 1,504 sq. ft. 34,848 sq. ft. $80
2019-01-24 Single Family Colonial 160 Woodland Street Bristol, CT 06010 $204,000 1,760 sq. ft. 8,276 sq. ft. $116
2019-01-24 Single Family Raised Ranch 1009 Jerome Avenue Bristol, CT 06010 $119,900 1,132 sq. ft. 16,988 sq. ft. $106
2018-11-26 Single Family Cape Cod 135 Newell Avenue Bristol, CT 06010 $130,000 905 sq. ft. 5,227 sq. ft. $144
2018-11-26 Single Family Ranch 30 Mohican Lane Bristol, CT 06010 $159,900 1,198 sq. ft. 9,148 sq. ft. $133
2018-11-24 Single Family Split Level 17 Ridgecrest Lane Bristol, CT 06010 $239,200 1,970 sq. ft. 15,682 sq. ft. $121
2018-11-20 Single Family Cape Cod 33 Dudley Street Bristol, CT 06010 $151,213 1,214 sq. ft. 5,227 sq. ft. $125
2018-11-18 Single Family Colonial; Farm House 57 Preston Street Bristol, CT 06010 $162,900 1,449 sq. ft. 9,583 sq. ft. $112
2018-11-17 Single Family Colonial 46 Beleden Gardens Drive Bristol, CT 06010 $175,000 2,164 sq. ft. 11,761 sq. ft. $81
2018-11-13 Single Family Ranch 42 Andrews Street Bristol, CT 06010 $69,000 800 sq. ft. 8,712 sq. ft. $86
2018-11-12 Single Family Ranch 3 Stevens Street Bristol, CT 06010 $136,900 960 sq. ft. 31,363 sq. ft. $143
2018-11-10 Single Family Ranch 89 Dogwood Lane Bristol, CT 06010 $269,900 1,144 sq. ft. 15,246 sq. ft. $236
2018-11-09 Single Family Raised Ranch 78 Buff Road Bristol, CT 06010 $220,000 1,184 sq. ft. 25,265 sq. ft. $186
2018-11-08 Single Family Cape Cod 57 Debra Lane Bristol, CT 06010 $199,900 1,505 sq. ft. 16,117 sq. ft. $133
2018-11-08 Single Family Cape Cod 130 Moody Street Bristol, CT 06010 $179,900 1,478 sq. ft. 12,632 sq. ft. $122
2018-11-06 Single Family Colonial 22 Oakland Street Bristol, CT 06010 $199,000 4,113 sq. ft. 7,405 sq. ft. $48
2018-11-05 Single Family Colonial 12 Old Cider Mill Road Bristol, CT 06010 $364,900 2,466 sq. ft. 43,560 sq. ft. $148
2018-11-03 Single Family Raised Ranch 224 Ivy Drive Bristol, CT 06010 $199,900 1,632 sq. ft. 27,443 sq. ft. $122
2018-11-03 Single Family Colonial 365 Allentown Road Bristol, CT 06010 $259,900 1,756 sq. ft. $148
2018-11-02 Single Family Ranch 176 Adams Street Bristol, CT 06010 $425,000 1,343 sq. ft. 879,912 sq. ft. $316
2018-11-02 Single Family Colonial 131 High Street Bristol, CT 06010 $209,900 2,741 sq. ft. 10,454 sq. ft. $77
2018-11-02 Single Family Bungalow 20 Melrose Street Bristol, CT 06010 $146,900 1,244 sq. ft. 6,970 sq. ft. $118
2018-11-01 Single Family Colonial; Farm House 46 Cricket Hill Road Bristol, CT 06010 $337,000 2,270 sq. ft. 22,651 sq. ft. $148
2018-10-31 Single Family Ranch 54 Sandra Street Bristol, CT 06010 $169,000 960 sq. ft. 10,454 sq. ft. $176
2018-10-29 Single Family Colonial 120 Dipietro Lane Bristol, CT 06010 $289,900 1,836 sq. ft. 15,682 sq. ft. $158
2018-10-29 Single Family Ranch 81 Eastwood Road Bristol, CT 06010 $234,900 2,169 sq. ft. 40,075 sq. ft. $108
2018-10-27 Single Family Cape Cod 4 Rosemont Avenue Bristol, CT 06010 $188,000 1,267 sq. ft. 9,148 sq. ft. $148
2018-10-25 Single Family Colonial 75 Oehler Drive Bristol, CT 06010 $279,500 1,907 sq. ft. 18,731 sq. ft. $147
2018-10-24 Single Family Cape Cod 91 Daisy Circle Bristol, CT 06010 $247,900 1,714 sq. ft. 15,246 sq. ft. $145
2018-10-23 Single Family Colonial 35 Buckley Avenue Bristol, CT 06010 $139,000 960 sq. ft. 6,098 sq. ft. $145
2018-10-23 Single Family Cape Cod; Cottage 84 Claremont Street Bristol, CT 06010 $109,900 1,183 sq. ft. 5,227 sq. ft. $93
2018-10-22 Single Family Colonial 21 Hadden Street Bristol, CT 06010 $319,000 3,300 sq. ft. 33,541 sq. ft. $97
2018-10-22 Single Family Ranch 1450 Stafford Avenue Bristol, CT 06010 $189,900 1,778 sq. ft. 25,700 sq. ft. $107
2018-10-19 Single Family Ranch 53 Rockwell Avenue Bristol, CT 06010 $136,000 826 sq. ft. 12,197 sq. ft. $165
2018-10-18 Single Family Colonial 93 Eugene Avenue Bristol, CT 06010 $194,900 1,680 sq. ft. 17,424 sq. ft. $116
2018-10-10 Single Family Cape Cod 47 Columbus Avenue Bristol, CT 06010 $192,000 1,626 sq. ft. 7,841 sq. ft. $118
2018-10-09 Single Family Colonial; Bungalow 25 South Street Extension Bristol, CT 06010 $149,900 1,143 sq. ft. 13,939 sq. ft. $131
2018-10-08 Single Family Colonial 164 Pilgrim Road Bristol, CT 06010 $249,999 3,018 sq. ft. 13,939 sq. ft. $83
2018-10-08 Single Family Raised Ranch; Ranch 145 Mine Road Bristol, CT 06010 $180,000 1,670 sq. ft. 22,651 sq. ft. $108
2018-10-07 Single Family Colonial 597 Burlington Avenue Bristol, CT 06010 $249,900 3,093 sq. ft. 18,295 sq. ft. $81
2018-10-02 Single Family Cape Cod 339 Washington Street Bristol, CT 06010 $200,000 2,650 sq. ft. 31,363 sq. ft. $75
2018-10-01 Single Family Cape Cod 260 North Pond Street Bristol, CT 06010 $277,900 2,399 sq. ft. 16,553 sq. ft. $116
2018-10-01 Single Family Raised Ranch 155 Greystone Avenue Bristol, CT 06010 $215,000 1,380 sq. ft. 12,197 sq. ft. $156
2018-09-27 Single Family Ranch 150 Sunnydale Avenue Bristol, CT 06010 $339,900 2,837 sq. ft. 44,431 sq. ft. $120
2018-09-22 Single Family Colonial 32 Alexander Street Bristol, CT 06010 $221,900 1,518 sq. ft. 5,227 sq. ft. $146
2018-09-21 Single Family Ranch 248 Morningside Drive Bristol, CT 06010 $134,900 899 sq. ft. 5,663 sq. ft. $150
2018-09-20 Single Family Colonial; Contemporary 574 Willis Street Bristol, CT 06010 $354,900 4,650 sq. ft. 108,900 sq. ft. $76
2018-09-19 Single Family Contemporary; Ranch 220 Burlington Avenue Bristol, CT 06010 $299,900 2,812 sq. ft. 60,113 sq. ft. $107
2018-09-19 Single Family Raised Ranch 43 Amy Lane Bristol, CT 06010 $237,500 1,632 sq. ft. 19,166 sq. ft. $146
2018-09-18 Single Family Raised Ranch 580 Witches Rock Road Bristol, CT 06010 $155,000 1,784 sq. ft. 21,344 sq. ft. $87
2018-09-18 Single Family Cape Cod 115 Grove Avenue Bristol, CT 06010 $209,900 2,294 sq. ft. 22,651 sq. ft. $92
2018-09-17 Single Family Ranch 115 Metro Street Bristol, CT 06010 $189,000 1,368 sq. ft. 15,246 sq. ft. $138
2018-09-14 Single Family Cape Cod; Contemporary 181 Oakridge Road Bristol, CT 06010 $459,500 3,163 sq. ft. 68,389 sq. ft. $145
2018-09-12 Single Family Ranch 20 Bird Road Bristol, CT 06010 $359,900 3,506 sq. ft. 24,394 sq. ft. $103
2018-09-11 Single Family Cape Cod 30 Caswell Avenue Bristol, CT 06010 $174,900 1,910 sq. ft. 6,534 sq. ft. $92
2018-09-08 Single Family Cape Cod 32 Sherman Street Bristol, CT 06010 $129,900 1,145 sq. ft. 5,663 sq. ft. $113
2018-09-06 Single Family Raised Ranch 70 Orleans Drive Bristol, CT 06010 $239,900 2,164 sq. ft. 17,860 sq. ft. $111
2018-09-05 Single Family Cape Cod 58 Garfield Road Bristol, CT 06010 $174,000 1,309 sq. ft. 6,534 sq. ft. $133
2018-09-04 Single Family Colonial; Hi-Ranch 191-A Gina Street Bristol, CT 06010 $299,900 2,200 sq. ft. 13,504 sq. ft. $136
2018-08-27 Single Family Colonial 225 Grove Street Bristol, CT 06010 $299,900 4,103 sq. ft. 29,621 sq. ft. $73
2018-08-23 Single Family Ranch 126 Lewis Road Bristol, CT 06010 $137,000 1,111 sq. ft. 15,246 sq. ft. $123
2018-08-22 Single Family Cape Cod 22 Mechanic Street Bristol, CT 06010 $144,900 1,604 sq. ft. 8,276 sq. ft. $90
2018-08-22 Single Family Colonial 47 Claire Street Bristol, CT 06010 $254,900 1,844 sq. ft. 10,454 sq. ft. $138
2018-08-22 Single Family Split Level 67 Old Cider Mill Road Bristol, CT 06010 $299,900 3,700 sq. ft. 31,363 sq. ft. $81
2018-08-16 Single Family Colonial 264 Barlow Street Bristol, CT 06010 $245,000 2,140 sq. ft. 22,216 sq. ft. $114
2018-08-15 Single Family Cape Cod 50 Great Pyrenees Way Bristol, CT 06010 $315,000 2,469 sq. ft. 39,640 sq. ft. $128
2018-08-14 Single Family Colonial 234 Beths Avenue Bristol, CT 06010 $279,800 2,200 sq. ft. 8,276 sq. ft. $127
2018-08-14 Single Family Raised Ranch 250 Longview Avenue Bristol, CT 06010 $249,900 1,980 sq. ft. 21,344 sq. ft. $126
2018-08-14 Single Family Cape Cod 29 Colony Street Bristol, CT 06010 $139,900 1,386 sq. ft. 4,356 sq. ft. $101
2018-08-11 Single Family Cape Cod; Bungalow 94 Union Street Bristol, CT 06010 $139,900 1,271 sq. ft. 7,405 sq. ft. $110
2018-08-11 Single Family Cape Cod 787 Farmington Avenue Bristol, CT 06010 $169,900 1,478 sq. ft. 9,148 sq. ft. $115
2018-08-10 Single Family Colonial 11 Balsam Street Bristol, CT 06010 $144,900 1,488 sq. ft. 4,792 sq. ft. $97
2018-08-09 Single Family Ranch 52 Consolation Street Bristol, CT 06010 $269,900 1,938 sq. ft. 20,909 sq. ft. $139
2018-08-07 Single Family Ranch 22 Woodcrest Drive Bristol, CT 06010 $200,900 1,484 sq. ft. 18,731 sq. ft. $135
2018-07-24 Single Family 380 King Street Bristol, CT 06010 $219,900 1,440 sq. ft. $153
2018-07-23 Single Family 380 King Street Bristol, CT 06010 $219,900 1,440 sq. ft. $153
2018-07-17 Single Family Raised Ranch 97 Deer Park Road Bristol, CT 06010 $235,000 1,184 sq. ft. 16,988 sq. ft. $198
2018-07-16 Single Family Cape Cod 46 Preston Street Bristol, CT 06010 $138,000 1,188 sq. ft. 6,970 sq. ft. $116
2018-07-15 Single Family Cape Cod 21 Hardwick Road Bristol, CT 06010 $209,900 1,733 sq. ft. 11,326 sq. ft. $121
2018-07-07 Single Family Colonial; Contemporary 24 Knibbs Circle Bristol, CT 06010 $335,000 2,801 sq. ft. $120
2018-07-01 Single Family Cape Cod 111 Nelson Farm Road Bristol, CT 06010 $349,500 2,918 sq. ft. 26,136 sq. ft. $120
2018-06-22 Single Family Ranch 105 Field Street Bristol, CT 06010 $104,900 945 sq. ft. 15,246 sq. ft. $111
2018-06-04 Single Family Cape Cod 194 Oakridge Road Bristol, CT 06010 $585,000 4,904 sq. ft. 230,868 sq. ft. $119
2018-05-01 Single Family Colonial 55 Claremont Street Bristol, CT 06010 $139,900 1,872 sq. ft. 5,227 sq. ft. $75
2018-02-28 Single Family Colonial 165 Gridley Street Bristol, CT 06010 $152,000 2,202 sq. ft. 3,920 sq. ft. $69
2017-12-12 Single Family Colonial 59 Maple Avenue Bristol, CT 06010 $199,900 3,431 sq. ft. 37,026 sq. ft. $58
2017-08-07 Single Family Colonial 48 Andrews Street Bristol, CT 06010 $215,000 2,808 sq. ft. 9,583 sq. ft. $77
2017-07-24 Single Family Colonial 59 Wolcott Street Bristol, CT 06010 $120,000 2,759 sq. ft. 5,227 sq. ft. $43
2017-06-19 Single Family Colonial 522 Fern Hill Road Bristol, CT 06010 $429,000 2,602 sq. ft. 56,628 sq. ft. $165
2015-06-23 Single Family Colonial 446 Stafford Avenue Bristol, CT 06010 $199,900 2,020 sq. ft. 47,916 sq. ft. $99